SWR297 LSZH-LFBD
Flight info
| Callsign | SWR297 |
|---|---|
| Flight time | N/A |
| Altitude | 41000 |
| Route | VEBIT T50 ROTOS Z669 MILPA N869 NINTU DCT TIS DCT ATSUP DCT MAKOX DCT POKET DCT VELIN |
| Aircraft | A359/H-SDE2E3GHIJ3J4J5LM1ORWXY/LB1D1 |
Departure
| Time | 2026-05-04 11:22 |
|---|---|
| Airport | Zürich Airport (LSZH) |
Arrival
| Time | N/A |
|---|---|
| Airport | Bordeaux–Mérignac Airport (LFBD) |
| Time | Latitude | Longitude | Altitude | Speed | Heading |
|---|---|---|---|---|---|
| 2026-05-04 10:49 | 47.46327 | 8.55202 | 1403 ft | 0 kts | 6° |
| 2026-05-04 11:12 | 47.46337 | 8.55203 | 1398 ft | 4 kts | 6° |
| 2026-05-04 11:12 | 47.46334 | 8.55203 | 1399 ft | 4 kts | 6° |
| 2026-05-04 11:13 | 47.46308 | 8.55199 | 1402 ft | 2 kts | 6° |
| 2026-05-04 11:13 | 47.46288 | 8.55199 | 1410 ft | 4 kts | 332° |
| 2026-05-04 11:13 | 47.46274 | 8.55225 | 1410 ft | 4 kts | 276° |
| 2026-05-04 11:13 | 47.46272 | 8.55263 | 1411 ft | 5 kts | 276° |
| 2026-05-04 11:14 | 47.46273 | 8.55272 | 1409 ft | 4 kts | 276° |
| 2026-05-04 11:14 | 47.46274 | 8.55263 | 1410 ft | 0 kts | 276° |
| 2026-05-04 11:16 | 47.46275 | 8.55242 | 1410 ft | 10 kts | 275° |
| 2026-05-04 11:16 | 47.46285 | 8.55097 | 1402 ft | 17 kts | 276° |
| 2026-05-04 11:17 | 47.46299 | 8.54894 | 1401 ft | 21 kts | 275° |
| 2026-05-04 11:17 | 47.46339 | 8.54725 | 1401 ft | 19 kts | 317° |
| 2026-05-04 11:19 | 47.47190 | 8.54149 | 1403 ft | 22 kts | 334° |
| 2026-05-04 11:19 | 47.47335 | 8.54047 | 1404 ft | 24 kts | 335° |
| 2026-05-04 11:19 | 47.47494 | 8.53938 | 1409 ft | 26 kts | 335° |
| 2026-05-04 11:19 | 47.47593 | 8.53854 | 1411 ft | 9 kts | 311° |
| 2026-05-04 11:20 | 47.47606 | 8.53754 | 1410 ft | 11 kts | 265° |
| 2026-05-04 11:20 | 47.47576 | 8.53645 | 1410 ft | 12 kts | 242° |
| 2026-05-04 11:20 | 47.47541 | 8.53622 | 1411 ft | 6 kts | 176° |
| 2026-05-04 11:20 | 47.47480 | 8.53657 | 1411 ft | 18 kts | 155° |
| 2026-05-04 11:22 | 47.43516 | 8.60108 | 6283 ft | 179 kts | 33° |
| 2026-05-04 11:22 | 47.44329 | 8.60409 | 6664 ft | 190 kts | 356° |